sensor_id;sensor_type;location;lat;lon;timestamp;P1;durP1;ratioP1;P2;durP2;ratioP2
72586;SDS011;60621;49.576;11.024;2023-04-03T00:00:52;5.47;;;1.85;;
72586;SDS011;60621;49.576;11.024;2023-04-03T00:01:53;3.78;;;1.48;;
72586;SDS011;60621;49.576;11.024;2023-04-03T00:02:56;3.90;;;1.80;;
72586;SDS011;60621;49.576;11.024;2023-04-03T00:03:58;4.43;;;1.70;;
72586;SDS011;60621;49.576;11.024;2023-04-03T00:05:02;49.33;;;24.55;;
72586;SDS011;60621;49.576;11.024;2023-04-03T00:06:05;62.58;;;30.13;;
72586;SDS011;60621;49.576;11.024;2023-04-03T00:08:10;33.42;;;16.05;;
72586;SDS011;60621;49.576;11.024;2023-04-03T00:09:11;16.23;;;7.88;;
72586;SDS011;60621;49.576;11.024;2023-04-03T00:10:14;16.20;;;7.53;;
72586;SDS011;60621;49.576;11.024;2023-04-03T00:11:16;18.55;;;9.82;;
72586;SDS011;60621;49.576;11.024;2023-04-03T00:12:19;9.52;;;4.65;;
72586;SDS011;60621;49.576;11.024;2023-04-03T00:13:20;7.18;;;3.58;;
72586;SDS011;60621;49.576;11.024;2023-04-03T00:14:22;4.85;;;2.47;;
72586;SDS011;60621;49.576;11.024;2023-04-03T00:15:23;4.78;;;2.00;;
72586;SDS011;60621;49.576;11.024;2023-04-03T00:16:25;4.00;;;1.90;;
72586;SDS011;60621;49.576;11.024;2023-04-03T00:17:26;4.60;;;1.92;;
72586;SDS011;60621;49.576;11.024;2023-04-03T00:18:28;3.58;;;1.58;;
72586;SDS011;60621;49.576;11.024;2023-04-03T00:19:30;4.43;;;1.92;;
72586;SDS011;60621;49.576;11.024;2023-04-03T00:20:32;4.78;;;1.77;;
72586;SDS011;60621;49.576;11.024;2023-04-03T00:21:35;4.00;;;1.73;;
72586;SDS011;60621;49.576;11.024;2023-04-03T00:22:37;4.32;;;1.60;;
72586;SDS011;60621;49.576;11.024;2023-04-03T00:23:38;4.07;;;1.75;;
72586;SDS011;60621;49.576;11.024;2023-04-03T00:24:40;4.68;;;1.92;;
72586;SDS011;60621;49.576;11.024;2023-04-03T00:25:42;4.72;;;1.90;;
72586;SDS011;60621;49.576;11.024;2023-04-03T00:26:44;4.68;;;1.73;;
72586;SDS011;60621;49.576;11.024;2023-04-03T00:27:46;4.28;;;2.00;;
72586;SDS011;60621;49.576;11.024;2023-04-03T00:28:47;4.68;;;1.95;;
72586;SDS011;60621;49.576;11.024;2023-04-03T00:29:49;4.45;;;1.80;;
72586;SDS011;60621;49.576;11.024;2023-04-03T00:30:51;3.75;;;1.52;;
72586;SDS011;60621;49.576;11.024;2023-04-03T00:31:52;4.30;;;1.77;;
72586;SDS011;60621;49.576;11.024;2023-04-03T00:32:54;3.60;;;1.77;;
72586;SDS011;60621;49.576;11.024;2023-04-03T00:33:56;5.13;;;1.70;;
72586;SDS011;60621;49.576;11.024;2023-04-03T00:34:57;3.75;;;1.50;;
72586;SDS011;60621;49.576;11.024;2023-04-03T00:35:59;4.68;;;1.80;;
72586;SDS011;60621;49.576;11.024;2023-04-03T00:37:00;4.80;;;1.70;;
72586;SDS011;60621;49.576;11.024;2023-04-03T00:38:03;4.22;;;1.88;;
72586;SDS011;60621;49.576;11.024;2023-04-03T00:39:04;4.80;;;1.83;;
72586;SDS011;60621;49.576;11.024;2023-04-03T00:40:07;4.07;;;1.80;;
72586;SDS011;60621;49.576;11.024;2023-04-03T00:41:13;3.63;;;1.60;;
72586;SDS011;60621;49.576;11.024;2023-04-03T00:42:16;4.07;;;1.67;;
72586;SDS011;60621;49.576;11.024;2023-04-03T00:43:22;4.25;;;1.70;;
72586;SDS011;60621;49.576;11.024;2023-04-03T00:45:37;3.70;;;1.60;;
72586;SDS011;60621;49.576;11.024;2023-04-03T00:46:40;3.83;;;1.77;;
72586;SDS011;60621;49.576;11.024;2023-04-03T00:47:42;3.85;;;1.50;;
72586;SDS011;60621;49.576;11.024;2023-04-03T00:48:44;4.68;;;1.73;;
72586;SDS011;60621;49.576;11.024;2023-04-03T00:49:47;4.03;;;1.70;;
72586;SDS011;60621;49.576;11.024;2023-04-03T00:50:49;4.28;;;1.73;;
72586;SDS011;60621;49.576;11.024;2023-04-03T00:51:51;4.13;;;1.50;;
72586;SDS011;60621;49.576;11.024;2023-04-03T00:52:56;3.75;;;1.70;;
72586;SDS011;60621;49.576;11.024;2023-04-03T00:53:59;4.00;;;1.67;;
72586;SDS011;60621;49.576;11.024;2023-04-03T00:55:04;4.60;;;1.58;;
72586;SDS011;60621;49.576;11.024;2023-04-03T00:56:09;3.50;;;1.50;;
72586;SDS011;60621;49.576;11.024;2023-04-03T00:57:13;4.75;;;1.60;;
72586;SDS011;60621;49.576;11.024;2023-04-03T00:58:19;4.10;;;1.63;;
72586;SDS011;60621;49.576;11.024;2023-04-03T00:59:23;3.40;;;1.50;;
72586;SDS011;60621;49.576;11.024;2023-04-03T01:00:28;3.70;;;1.50;;
72586;SDS011;60621;49.576;11.024;2023-04-03T01:01:30;4.30;;;1.75;;
72586;SDS011;60621;49.576;11.024;2023-04-03T01:02:33;3.30;;;1.50;;
72586;SDS011;60621;49.576;11.024;2023-04-03T01:03:34;4.28;;;1.50;;
72586;SDS011;60621;49.576;11.024;2023-04-03T01:04:37;3.60;;;1.60;;
72586;SDS011;60621;49.576;11.024;2023-04-03T01:05:41;3.90;;;1.73;;
72586;SDS011;60621;49.576;11.024;2023-04-03T01:06:43;4.00;;;1.60;;
72586;SDS011;60621;49.576;11.024;2023-04-03T01:07:44;4.03;;;1.70;;
72586;SDS011;60621;49.576;11.024;2023-04-03T01:09:51;4.10;;;1.42;;
72586;SDS011;60621;49.576;11.024;2023-04-03T01:10:57;4.30;;;1.70;;
72586;SDS011;60621;49.576;11.024;2023-04-03T01:12:14;4.43;;;1.67;;
72586;SDS011;60621;49.576;11.024;2023-04-03T01:13:24;4.38;;;1.80;;
72586;SDS011;60621;49.576;11.024;2023-04-03T01:14:28;3.80;;;1.60;;
72586;SDS011;60621;49.576;11.024;2023-04-03T01:15:29;4.50;;;1.63;;
72586;SDS011;60621;49.576;11.024;2023-04-03T01:16:36;4.28;;;1.80;;
72586;SDS011;60621;49.576;11.024;2023-04-03T01:17:48;3.30;;;1.38;;
72586;SDS011;60621;49.576;11.024;2023-04-03T01:18:51;3.95;;;1.60;;
72586;SDS011;60621;49.576;11.024;2023-04-03T01:25:30;3.90;;;1.60;;
72586;SDS011;60621;49.576;11.024;2023-04-03T01:26:31;3.63;;;1.58;;
72586;SDS011;60621;49.576;11.024;2023-04-03T01:27:34;4.15;;;1.90;;
72586;SDS011;60621;49.576;11.024;2023-04-03T01:28:35;4.40;;;1.50;;
72586;SDS011;60621;49.576;11.024;2023-04-03T01:29:37;4.88;;;1.80;;
72586;SDS011;60621;49.576;11.024;2023-04-03T01:30:50;5.65;;;1.50;;
72586;SDS011;60621;49.576;11.024;2023-04-03T01:32:01;4.20;;;1.70;;
72586;SDS011;60621;49.576;11.024;2023-04-03T01:34:05;3.60;;;1.52;;
72586;SDS011;60621;49.576;11.024;2023-04-03T01:35:08;3.80;;;1.67;;
72586;SDS011;60621;49.576;11.024;2023-04-03T01:36:14;4.28;;;1.70;;
72586;SDS011;60621;49.576;11.024;2023-04-03T01:37:18;4.22;;;1.63;;
72586;SDS011;60621;49.576;11.024;2023-04-03T01:38:20;4.75;;;1.63;;
72586;SDS011;60621;49.576;11.024;2023-04-03T01:39:22;4.43;;;1.77;;
72586;SDS011;60621;49.576;11.024;2023-04-03T01:40:24;4.38;;;1.67;;
72586;SDS011;60621;49.576;11.024;2023-04-03T01:41:26;4.28;;;1.70;;
72586;SDS011;60621;49.576;11.024;2023-04-03T01:42:29;3.60;;;1.45;;
72586;SDS011;60621;49.576;11.024;2023-04-03T01:43:30;4.05;;;1.70;;
72586;SDS011;60621;49.576;11.024;2023-04-03T01:44:32;5.57;;;1.65;;
72586;SDS011;60621;49.576;11.024;2023-04-03T01:45:33;4.20;;;1.67;;
72586;SDS011;60621;49.576;11.024;2023-04-03T01:46:35;4.43;;;1.60;;
72586;SDS011;60621;49.576;11.024;2023-04-03T01:47:39;3.85;;;1.70;;
72586;SDS011;60621;49.576;11.024;2023-04-03T01:48:40;3.83;;;1.67;;
72586;SDS011;60621;49.576;11.024;2023-04-03T01:49:42;3.72;;;1.50;;
72586;SDS011;60621;49.576;11.024;2023-04-03T01:50:44;4.25;;;1.40;;
72586;SDS011;60621;49.576;11.024;2023-04-03T01:51:45;5.32;;;1.83;;
72586;SDS011;60621;49.576;11.024;2023-04-03T01:52:47;3.90;;;1.60;;
72586;SDS011;60621;49.576;11.024;2023-04-03T01:53:48;4.18;;;1.40;;
72586;SDS011;60621;49.576;11.024;2023-04-03T01:54:50;4.53;;;1.70;;
72586;SDS011;60621;49.576;11.024;2023-04-03T01:55:52;4.03;;;1.60;;
72586;SDS011;60621;49.576;11.024;2023-04-03T01:56:53;4.00;;;1.60;;
72586;SDS011;60621;49.576;11.024;2023-04-03T01:57:55;3.95;;;1.70;;
72586;SDS011;60621;49.576;11.024;2023-04-03T01:58:56;4.45;;;1.60;;
72586;SDS011;60621;49.576;11.024;2023-04-03T01:59:58;3.90;;;1.52;;
72586;SDS011;60621;49.576;11.024;2023-04-03T02:01:00;3.65;;;1.50;;
72586;SDS011;60621;49.576;11.024;2023-04-03T02:02:02;3.70;;;1.60;;
72586;SDS011;60621;49.576;11.024;2023-04-03T02:03:04;4.18;;;1.70;;
72586;SDS011;60621;49.576;11.024;2023-04-03T02:04:06;6.38;;;1.70;;
72586;SDS011;60621;49.576;11.024;2023-04-03T02:05:08;5.00;;;1.70;;
72586;SDS011;60621;49.576;11.024;2023-04-03T02:06:09;5.10;;;1.70;;
72586;SDS011;60621;49.576;11.024;2023-04-03T02:07:13;3.90;;;1.60;;
72586;SDS011;60621;49.576;11.024;2023-04-03T02:08:14;3.70;;;1.50;;
72586;SDS011;60621;49.576;11.024;2023-04-03T02:09:19;3.78;;;1.70;;
72586;SDS011;60621;49.576;11.024;2023-04-03T02:10:20;4.45;;;1.70;;
72586;SDS011;60621;49.576;11.024;2023-04-03T02:11:22;5.10;;;1.98;;
72586;SDS011;60621;49.576;11.024;2023-04-03T02:12:24;4.68;;;1.80;;
72586;SDS011;60621;49.576;11.024;2023-04-03T02:13:25;4.95;;;1.80;;
72586;SDS011;60621;49.576;11.024;2023-04-03T02:14:27;4.32;;;1.63;;
72586;SDS011;60621;49.576;11.024;2023-04-03T02:15:28;4.22;;;1.67;;
72586;SDS011;60621;49.576;11.024;2023-04-03T02:16:30;4.38;;;1.70;;
72586;SDS011;60621;49.576;11.024;2023-04-03T02:17:32;3.90;;;1.65;;
72586;SDS011;60621;49.576;11.024;2023-04-03T02:18:34;5.93;;;1.70;;
72586;SDS011;60621;49.576;11.024;2023-04-03T02:19:35;4.13;;;1.77;;
72586;SDS011;60621;49.576;11.024;2023-04-03T02:20:37;4.82;;;1.50;;
72586;SDS011;60621;49.576;11.024;2023-04-03T02:21:39;4.10;;;1.88;;
72586;SDS011;60621;49.576;11.024;2023-04-03T02:22:41;4.45;;;1.60;;
72586;SDS011;60621;49.576;11.024;2023-04-03T02:23:43;4.55;;;1.60;;
72586;SDS011;60621;49.576;11.024;2023-04-03T02:24:44;4.07;;;1.52;;
72586;SDS011;60621;49.576;11.024;2023-04-03T02:25:46;4.05;;;1.80;;
72586;SDS011;60621;49.576;11.024;2023-04-03T02:26:50;4.63;;;1.70;;
72586;SDS011;60621;49.576;11.024;2023-04-03T02:27:51;4.97;;;1.60;;
72586;SDS011;60621;49.576;11.024;2023-04-03T02:28:53;3.95;;;1.63;;
72586;SDS011;60621;49.576;11.024;2023-04-03T02:29:55;3.33;;;1.48;;
72586;SDS011;60621;49.576;11.024;2023-04-03T02:30:56;3.83;;;1.60;;
72586;SDS011;60621;49.576;11.024;2023-04-03T02:31:58;4.30;;;1.85;;
72586;SDS011;60621;49.576;11.024;2023-04-03T02:32:59;4.00;;;1.75;;
72586;SDS011;60621;49.576;11.024;2023-04-03T02:34:01;6.90;;;1.80;;
72586;SDS011;60621;49.576;11.024;2023-04-03T02:35:03;5.78;;;1.90;;
72586;SDS011;60621;49.576;11.024;2023-04-03T02:36:05;3.80;;;1.58;;
72586;SDS011;60621;49.576;11.024;2023-04-03T02:37:08;4.45;;;1.77;;
72586;SDS011;60621;49.576;11.024;2023-04-03T02:38:10;4.70;;;1.85;;
72586;SDS011;60621;49.576;11.024;2023-04-03T02:39:11;4.07;;;1.70;;
72586;SDS011;60621;49.576;11.024;2023-04-03T02:40:13;3.95;;;1.50;;
72586;SDS011;60621;49.576;11.024;2023-04-03T02:41:14;5.10;;;1.80;;
72586;SDS011;60621;49.576;11.024;2023-04-03T02:42:17;4.32;;;1.80;;
72586;SDS011;60621;49.576;11.024;2023-04-03T02:43:18;4.72;;;1.80;;
72586;SDS011;60621;49.576;11.024;2023-04-03T02:44:19;5.43;;;1.80;;
72586;SDS011;60621;49.576;11.024;2023-04-03T02:45:21;5.25;;;1.80;;
72586;SDS011;60621;49.576;11.024;2023-04-03T02:46:22;4.18;;;1.85;;
72586;SDS011;60621;49.576;11.024;2023-04-03T02:47:24;5.43;;;2.20;;
72586;SDS011;60621;49.576;11.024;2023-04-03T02:48:26;4.22;;;1.73;;
72586;SDS011;60621;49.576;11.024;2023-04-03T02:49:28;4.10;;;1.80;;
72586;SDS011;60621;49.576;11.024;2023-04-03T02:50:30;4.03;;;1.80;;
72586;SDS011;60621;49.576;11.024;2023-04-03T02:51:31;4.40;;;1.83;;
72586;SDS011;60621;49.576;11.024;2023-04-03T02:52:33;5.28;;;1.85;;
72586;SDS011;60621;49.576;11.024;2023-04-03T02:53:35;5.45;;;1.88;;
72586;SDS011;60621;49.576;11.024;2023-04-03T02:54:37;4.25;;;1.80;;
72586;SDS011;60621;49.576;11.024;2023-04-03T02:55:38;3.97;;;1.67;;
72586;SDS011;60621;49.576;11.024;2023-04-03T02:56:39;4.75;;;1.80;;
72586;SDS011;60621;49.576;11.024;2023-04-03T02:57:41;6.22;;;1.75;;
72586;SDS011;60621;49.576;11.024;2023-04-03T02:58:43;4.75;;;1.90;;
72586;SDS011;60621;49.576;11.024;2023-04-03T02:59:44;6.10;;;2.03;;
72586;SDS011;60621;49.576;11.024;2023-04-03T03:00:46;4.75;;;1.80;;
72586;SDS011;60621;49.576;11.024;2023-04-03T03:01:47;4.70;;;1.98;;
72586;SDS011;60621;49.576;11.024;2023-04-03T03:02:49;4.20;;;1.80;;
72586;SDS011;60621;49.576;11.024;2023-04-03T03:03:51;4.32;;;1.90;;
72586;SDS011;60621;49.576;11.024;2023-04-03T03:04:52;4.88;;;1.92;;
72586;SDS011;60621;49.576;11.024;2023-04-03T03:06:04;5.43;;;1.88;;
72586;SDS011;60621;49.576;11.024;2023-04-03T03:07:08;5.80;;;1.80;;
72586;SDS011;60621;49.576;11.024;2023-04-03T03:08:09;4.47;;;1.75;;
72586;SDS011;60621;49.576;11.024;2023-04-03T03:09:11;4.93;;;2.00;;
72586;SDS011;60621;49.576;11.024;2023-04-03T03:10:14;5.35;;;2.25;;
72586;SDS011;60621;49.576;11.024;2023-04-03T03:11:15;6.03;;;2.08;;
72586;SDS011;60621;49.576;11.024;2023-04-03T03:12:17;5.05;;;1.75;;
72586;SDS011;60621;49.576;11.024;2023-04-03T03:13:23;6.22;;;2.13;;
72586;SDS011;60621;49.576;11.024;2023-04-03T03:14:25;4.93;;;2.00;;
72586;SDS011;60621;49.576;11.024;2023-04-03T03:15:27;4.68;;;1.88;;
72586;SDS011;60621;49.576;11.024;2023-04-03T03:16:28;5.88;;;2.00;;
72586;SDS011;60621;49.576;11.024;2023-04-03T03:17:30;4.70;;;1.90;;
72586;SDS011;60621;49.576;11.024;2023-04-03T03:18:33;4.93;;;1.90;;
72586;SDS011;60621;49.576;11.024;2023-04-03T03:19:35;5.28;;;1.85;;
72586;SDS011;60621;49.576;11.024;2023-04-03T03:20:37;4.28;;;2.00;;
72586;SDS011;60621;49.576;11.024;2023-04-03T03:21:39;5.38;;;2.00;;
72586;SDS011;60621;49.576;11.024;2023-04-03T03:22:40;4.80;;;2.20;;
72586;SDS011;60621;49.576;11.024;2023-04-03T03:23:42;4.78;;;1.83;;
72586;SDS011;60621;49.576;11.024;2023-04-03T03:24:43;4.88;;;2.10;;
72586;SDS011;60621;49.576;11.024;2023-04-03T03:25:45;4.55;;;2.00;;
72586;SDS011;60621;49.576;11.024;2023-04-03T03:26:47;4.47;;;2.05;;
72586;SDS011;60621;49.576;11.024;2023-04-03T03:27:48;6.80;;;2.20;;
72586;SDS011;60621;49.576;11.024;2023-04-03T03:28:50;5.60;;;2.10;;
72586;SDS011;60621;49.576;11.024;2023-04-03T03:29:51;6.50;;;2.38;;
72586;SDS011;60621;49.576;11.024;2023-04-03T03:30:53;6.95;;;2.30;;
72586;SDS011;60621;49.576;11.024;2023-04-03T03:31:54;5.88;;;2.35;;
72586;SDS011;60621;49.576;11.024;2023-04-03T03:32:56;8.02;;;2.25;;
72586;SDS011;60621;49.576;11.024;2023-04-03T03:33:57;5.57;;;2.25;;
72586;SDS011;60621;49.576;11.024;2023-04-03T03:34:59;6.53;;;2.30;;
72586;SDS011;60621;49.576;11.024;2023-04-03T03:36:00;7.50;;;2.30;;
72586;SDS011;60621;49.576;11.024;2023-04-03T03:37:02;5.38;;;2.25;;
72586;SDS011;60621;49.576;11.024;2023-04-03T03:38:03;5.07;;;2.22;;
72586;SDS011;60621;49.576;11.024;2023-04-03T03:39:05;5.38;;;2.00;;
72586;SDS011;60621;49.576;11.024;2023-04-03T03:40:06;6.05;;;2.08;;
72586;SDS011;60621;49.576;11.024;2023-04-03T03:41:09;6.13;;;2.33;;
72586;SDS011;60621;49.576;11.024;2023-04-03T03:42:10;4.95;;;2.10;;
72586;SDS011;60621;49.576;11.024;2023-04-03T03:43:12;5.38;;;2.03;;
72586;SDS011;60621;49.576;11.024;2023-04-03T03:44:13;5.47;;;2.20;;
72586;SDS011;60621;49.576;11.024;2023-04-03T03:45:16;5.40;;;2.10;;
72586;SDS011;60621;49.576;11.024;2023-04-03T03:46:17;5.07;;;2.45;;
72586;SDS011;60621;49.576;11.024;2023-04-03T03:47:19;5.63;;;2.30;;
72586;SDS011;60621;49.576;11.024;2023-04-03T03:48:21;5.78;;;2.10;;
72586;SDS011;60621;49.576;11.024;2023-04-03T03:49:23;5.05;;;2.25;;
72586;SDS011;60621;49.576;11.024;2023-04-03T03:50:24;5.97;;;2.35;;
72586;SDS011;60621;49.576;11.024;2023-04-03T03:51:26;5.53;;;2.50;;
72586;SDS011;60621;49.576;11.024;2023-04-03T03:52:27;4.68;;;2.30;;
72586;SDS011;60621;49.576;11.024;2023-04-03T03:53:29;4.47;;;1.90;;
72586;SDS011;60621;49.576;11.024;2023-04-03T03:54:31;5.72;;;2.20;;
72586;SDS011;60621;49.576;11.024;2023-04-03T03:55:33;5.90;;;2.13;;
72586;SDS011;60621;49.576;11.024;2023-04-03T03:56:35;6.65;;;2.53;;
72586;SDS011;60621;49.576;11.024;2023-04-03T03:57:36;5.53;;;2.20;;
72586;SDS011;60621;49.576;11.024;2023-04-03T03:58:38;4.95;;;2.30;;
72586;SDS011;60621;49.576;11.024;2023-04-03T03:59:40;6.63;;;2.40;;
72586;SDS011;60621;49.576;11.024;2023-04-03T04:00:42;5.10;;;2.20;;
72586;SDS011;60621;49.576;11.024;2023-04-03T04:01:43;5.68;;;2.40;;
72586;SDS011;60621;49.576;11.024;2023-04-03T04:02:45;6.22;;;2.50;;
72586;SDS011;60621;49.576;11.024;2023-04-03T04:03:47;6.45;;;2.40;;
72586;SDS011;60621;49.576;11.024;2023-04-03T04:04:49;6.40;;;2.30;;
72586;SDS011;60621;49.576;11.024;2023-04-03T04:05:50;7.25;;;2.60;;
72586;SDS011;60621;49.576;11.024;2023-04-03T04:06:52;5.07;;;2.10;;
72586;SDS011;60621;49.576;11.024;2023-04-03T04:07:54;5.18;;;2.38;;
72586;SDS011;60621;49.576;11.024;2023-04-03T04:08:55;5.28;;;2.20;;
72586;SDS011;60621;49.576;11.024;2023-04-03T04:09:57;5.05;;;2.20;;
72586;SDS011;60621;49.576;11.024;2023-04-03T04:10:59;5.22;;;2.25;;
72586;SDS011;60621;49.576;11.024;2023-04-03T04:12:00;5.95;;;2.55;;
72586;SDS011;60621;49.576;11.024;2023-04-03T04:13:02;8.13;;;2.60;;
72586;SDS011;60621;49.576;11.024;2023-04-03T04:14:03;6.07;;;2.17;;
72586;SDS011;60621;49.576;11.024;2023-04-03T04:15:05;7.90;;;2.40;;
72586;SDS011;60621;49.576;11.024;2023-04-03T04:16:07;5.93;;;2.40;;
72586;SDS011;60621;49.576;11.024;2023-04-03T04:17:08;5.25;;;2.70;;
72586;SDS011;60621;49.576;11.024;2023-04-03T04:18:10;5.50;;;2.40;;
72586;SDS011;60621;49.576;11.024;2023-04-03T04:19:12;5.10;;;2.30;;
72586;SDS011;60621;49.576;11.024;2023-04-03T04:20:15;5.93;;;2.60;;
72586;SDS011;60621;49.576;11.024;2023-04-03T04:21:16;5.20;;;2.20;;
72586;SDS011;60621;49.576;11.024;2023-04-03T04:22:18;5.68;;;2.35;;
72586;SDS011;60621;49.576;11.024;2023-04-03T04:23:19;6.85;;;2.42;;
72586;SDS011;60621;49.576;11.024;2023-04-03T04:24:21;5.78;;;2.55;;
72586;SDS011;60621;49.576;11.024;2023-04-03T04:25:23;5.57;;;2.35;;
72586;SDS011;60621;49.576;11.024;2023-04-03T04:26:25;6.07;;;2.30;;
72586;SDS011;60621;49.576;11.024;2023-04-03T04:27:27;4.72;;;2.20;;
72586;SDS011;60621;49.576;11.024;2023-04-03T04:28:28;5.57;;;2.67;;
72586;SDS011;60621;49.576;11.024;2023-04-03T04:29:30;6.32;;;2.50;;
72586;SDS011;60621;49.576;11.024;2023-04-03T04:30:36;4.75;;;2.30;;
72586;SDS011;60621;49.576;11.024;2023-04-03T04:31:38;7.10;;;2.60;;
72586;SDS011;60621;49.576;11.024;2023-04-03T04:32:39;5.47;;;2.50;;
72586;SDS011;60621;49.576;11.024;2023-04-03T04:33:41;5.70;;;2.35;;
72586;SDS011;60621;49.576;11.024;2023-04-03T04:34:42;7.68;;;3.05;;
72586;SDS011;60621;49.576;11.024;2023-04-03T04:35:44;6.43;;;2.63;;
72586;SDS011;60621;49.576;11.024;2023-04-03T04:36:48;5.82;;;2.30;;
72586;SDS011;60621;49.576;11.024;2023-04-03T04:37:49;5.88;;;2.42;;
72586;SDS011;60621;49.576;11.024;2023-04-03T04:38:52;7.55;;;2.40;;
72586;SDS011;60621;49.576;11.024;2023-04-03T04:39:56;6.65;;;2.60;;
72586;SDS011;60621;49.576;11.024;2023-04-03T04:40:58;5.47;;;2.45;;
72586;SDS011;60621;49.576;11.024;2023-04-03T04:41:59;5.38;;;2.40;;
72586;SDS011;60621;49.576;11.024;2023-04-03T04:43:01;6.18;;;2.78;;
72586;SDS011;60621;49.576;11.024;2023-04-03T04:44:02;6.18;;;2.50;;
72586;SDS011;60621;49.576;11.024;2023-04-03T04:45:04;6.25;;;2.10;;
72586;SDS011;60621;49.576;11.024;2023-04-03T04:46:07;6.28;;;2.47;;
72586;SDS011;60621;49.576;11.024;2023-04-03T04:47:10;6.38;;;2.63;;
72586;SDS011;60621;49.576;11.024;2023-04-03T04:48:12;7.57;;;2.70;;
72586;SDS011;60621;49.576;11.024;2023-04-03T04:49:13;5.95;;;2.75;;
72586;SDS011;60621;49.576;11.024;2023-04-03T04:50:15;5.68;;;2.42;;
72586;SDS011;60621;49.576;11.024;2023-04-03T04:51:17;6.45;;;2.72;;
72586;SDS011;60621;49.576;11.024;2023-04-03T04:52:19;5.38;;;2.30;;
72586;SDS011;60621;49.576;11.024;2023-04-03T04:53:21;5.07;;;2.30;;
72586;SDS011;60621;49.576;11.024;2023-04-03T04:54:23;6.80;;;2.47;;
72586;SDS011;60621;49.576;11.024;2023-04-03T04:55:24;6.22;;;2.58;;
72586;SDS011;60621;49.576;11.024;2023-04-03T04:56:26;7.55;;;2.60;;
72586;SDS011;60621;49.576;11.024;2023-04-03T04:57:27;5.15;;;2.70;;
72586;SDS011;60621;49.576;11.024;2023-04-03T04:58:29;7.32;;;2.72;;
72586;SDS011;60621;49.576;11.024;2023-04-03T04:59:31;6.65;;;2.25;;
72586;SDS011;60621;49.576;11.024;2023-04-03T05:00:32;6.63;;;2.70;;
72586;SDS011;60621;49.576;11.024;2023-04-03T05:01:34;5.72;;;2.58;;
72586;SDS011;60621;49.576;11.024;2023-04-03T05:02:36;5.38;;;2.50;;
72586;SDS011;60621;49.576;11.024;2023-04-03T05:03:38;5.03;;;2.35;;
72586;SDS011;60621;49.576;11.024;2023-04-03T05:04:40;5.93;;;2.50;;
72586;SDS011;60621;49.576;11.024;2023-04-03T05:05:41;5.55;;;2.40;;
72586;SDS011;60621;49.576;11.024;2023-04-03T05:06:43;6.68;;;2.92;;
72586;SDS011;60621;49.576;11.024;2023-04-03T05:07:44;6.25;;;2.28;;
72586;SDS011;60621;49.576;11.024;2023-04-03T05:08:46;7.00;;;2.70;;
72586;SDS011;60621;49.576;11.024;2023-04-03T05:09:47;5.20;;;2.30;;
72586;SDS011;60621;49.576;11.024;2023-04-03T05:10:49;6.72;;;2.70;;
72586;SDS011;60621;49.576;11.024;2023-04-03T05:11:54;5.82;;;2.50;;
72586;SDS011;60621;49.576;11.024;2023-04-03T05:12:57;8.25;;;2.97;;
72586;SDS011;60621;49.576;11.024;2023-04-03T05:13:59;5.97;;;2.45;;
72586;SDS011;60621;49.576;11.024;2023-04-03T05:15:00;6.00;;;2.70;;
72586;SDS011;60621;49.576;11.024;2023-04-03T05:16:02;5.57;;;2.40;;
72586;SDS011;60621;49.576;11.024;2023-04-03T05:17:04;4.97;;;2.17;;
72586;SDS011;60621;49.576;11.024;2023-04-03T05:18:05;5.30;;;2.20;;
72586;SDS011;60621;49.576;11.024;2023-04-03T05:19:07;7.30;;;2.50;;
72586;SDS011;60621;49.576;11.024;2023-04-03T05:20:09;6.68;;;2.47;;
72586;SDS011;60621;49.576;11.024;2023-04-03T05:21:11;5.93;;;2.42;;
72586;SDS011;60621;49.576;11.024;2023-04-03T05:22:13;5.32;;;2.58;;
72586;SDS011;60621;49.576;11.024;2023-04-03T05:23:14;6.30;;;2.20;;
72586;SDS011;60621;49.576;11.024;2023-04-03T05:24:16;7.00;;;2.70;;
72586;SDS011;60621;49.576;11.024;2023-04-03T05:25:18;5.97;;;2.30;;
72586;SDS011;60621;49.576;11.024;2023-04-03T05:26:19;7.43;;;2.42;;
72586;SDS011;60621;49.576;11.024;2023-04-03T05:27:22;6.28;;;2.50;;
72586;SDS011;60621;49.576;11.024;2023-04-03T05:29:27;5.80;;;2.28;;
72586;SDS011;60621;49.576;11.024;2023-04-03T05:30:28;5.68;;;2.45;;
72586;SDS011;60621;49.576;11.024;2023-04-03T05:31:30;5.57;;;2.33;;
72586;SDS011;60621;49.576;11.024;2023-04-03T05:32:31;6.93;;;2.10;;
72586;SDS011;60621;49.576;11.024;2023-04-03T05:33:34;5.95;;;2.85;;
72586;SDS011;60621;49.576;11.024;2023-04-03T05:34:35;6.40;;;2.20;;
72586;SDS011;60621;49.576;11.024;2023-04-03T05:35:37;7.28;;;2.53;;
72586;SDS011;60621;49.576;11.024;2023-04-03T05:36:43;6.35;;;2.70;;
72586;SDS011;60621;49.576;11.024;2023-04-03T05:37:44;7.40;;;2.45;;
72586;SDS011;60621;49.576;11.024;2023-04-03T05:38:46;6.75;;;2.55;;
72586;SDS011;60621;49.576;11.024;2023-04-03T05:39:48;6.18;;;2.40;;
72586;SDS011;60621;49.576;11.024;2023-04-03T05:40:49;6.30;;;2.28;;
72586;SDS011;60621;49.576;11.024;2023-04-03T05:41:51;6.93;;;2.70;;
72586;SDS011;60621;49.576;11.024;2023-04-03T05:42:52;6.43;;;2.63;;
72586;SDS011;60621;49.576;11.024;2023-04-03T05:43:54;5.13;;;2.22;;
72586;SDS011;60621;49.576;11.024;2023-04-03T05:44:56;5.85;;;2.20;;
72586;SDS011;60621;49.576;11.024;2023-04-03T05:45:57;6.65;;;2.20;;
72586;SDS011;60621;49.576;11.024;2023-04-03T05:46:59;6.57;;;2.47;;
72586;SDS011;60621;49.576;11.024;2023-04-03T05:48:01;6.68;;;2.50;;
72586;SDS011;60621;49.576;11.024;2023-04-03T05:49:02;5.53;;;2.40;;
72586;SDS011;60621;49.576;11.024;2023-04-03T05:50:04;6.10;;;2.40;;
72586;SDS011;60621;49.576;11.024;2023-04-03T05:51:07;5.63;;;2.25;;
72586;SDS011;60621;49.576;11.024;2023-04-03T05:52:17;5.32;;;2.50;;
72586;SDS011;60621;49.576;11.024;2023-04-03T05:53:24;6.97;;;2.28;;
72586;SDS011;60621;49.576;11.024;2023-04-03T05:54:29;5.85;;;2.30;;
72586;SDS011;60621;49.576;11.024;2023-04-03T05:55:31;7.72;;;2.70;;
72586;SDS011;60621;49.576;11.024;2023-04-03T05:56:33;4.40;;;2.30;;
72586;SDS011;60621;49.576;11.024;2023-04-03T05:57:35;6.18;;;2.60;;
72586;SDS011;60621;49.576;11.024;2023-04-03T05:58:37;9.68;;;2.45;;
72586;SDS011;60621;49.576;11.024;2023-04-03T05:59:38;5.65;;;2.10;;
72586;SDS011;60621;49.576;11.024;2023-04-03T06:00:40;5.07;;;2.10;;
72586;SDS011;60621;49.576;11.024;2023-04-03T06:01:41;6.13;;;2.30;;
72586;SDS011;60621;49.576;11.024;2023-04-03T06:02:43;6.10;;;2.13;;
72586;SDS011;60621;49.576;11.024;2023-04-03T06:03:45;5.68;;;2.47;;
72586;SDS011;60621;49.576;11.024;2023-04-03T06:04:46;7.93;;;2.20;;
72586;SDS011;60621;49.576;11.024;2023-04-03T06:05:50;5.32;;;2.15;;
72586;SDS011;60621;49.576;11.024;2023-04-03T06:06:53;6.30;;;2.17;;
72586;SDS011;60621;49.576;11.024;2023-04-03T06:07:55;6.03;;;2.15;;
72586;SDS011;60621;49.576;11.024;2023-04-03T06:08:58;5.80;;;2.40;;
72586;SDS011;60621;49.576;11.024;2023-04-03T06:10:01;5.68;;;2.15;;
72586;SDS011;60621;49.576;11.024;2023-04-03T06:11:08;5.50;;;2.30;;
72586;SDS011;60621;49.576;11.024;2023-04-03T06:12:09;8.05;;;2.17;;
72586;SDS011;60621;49.576;11.024;2023-04-03T06:13:12;4.70;;;2.10;;
72586;SDS011;60621;49.576;11.024;2023-04-03T06:14:14;6.80;;;2.55;;
72586;SDS011;60621;49.576;11.024;2023-04-03T06:15:15;5.00;;;2.00;;
72586;SDS011;60621;49.576;11.024;2023-04-03T06:16:18;5.45;;;2.10;;
72586;SDS011;60621;49.576;11.024;2023-04-03T06:17:20;4.95;;;2.15;;
72586;SDS011;60621;49.576;11.024;2023-04-03T06:18:22;6.22;;;2.20;;
72586;SDS011;60621;49.576;11.024;2023-04-03T06:19:23;5.35;;;2.15;;
72586;SDS011;60621;49.576;11.024;2023-04-03T06:20:25;7.25;;;2.50;;